Time,TemperatureF,DewpointF,PressureIn,WindDirection,WindDirectionDegrees,WindSpeedMPH,WindSpeedGustMPH,Humidity,HourlyPrecipIn,Conditions,Clouds,dailyrainin,SolarRadiationWatts/m^2,SoftwareType,DateUTC
2013-08-17 00:04:00,60.3,58.0,30.21,South,172,0.0,0.0,91,0.00,,,0.00,0,weatherlink.com 1.10,2013-08-17 04:04:00,
2013-08-17 00:19:00,59.8,58.0,30.21,South,172,0.0,0.0,92,0.00,,,0.00,0,weatherlink.com 1.10,2013-08-17 04:19:00,
2013-08-17 00:34:00,60.0,58.0,30.22,South,172,0.0,1.0,92,0.00,,,0.00,0,weatherlink.com 1.10,2013-08-17 04:34:00,
2013-08-17 00:49:00,59.9,57.0,30.22,South,172,0.0,1.0,91,0.00,,,0.00,0,weatherlink.com 1.10,2013-08-17 04:49:00,
2013-08-17 01:04:00,59.5,57.0,30.23,South,172,0.0,0.0,91,0.00,,,0.00,0,weatherlink.com 1.10,2013-08-17 05:04:00,
2013-08-17 01:19:00,59.0,56.0,30.23,South,172,0.0,0.0,91,0.00,,,0.00,0,weatherlink.com 1.10,2013-08-17 05:19:00,
2013-08-17 01:34:00,58.6,56.0,30.23,South,172,0.0,0.0,92,0.00,,,0.00,0,weatherlink.com 1.10,2013-08-17 05:34:00,
2013-08-17 01:49:00,58.2,56.0,30.23,South,172,0.0,1.0,93,0.00,,,0.00,0,weatherlink.com 1.10,2013-08-17 05:49:00,
2013-08-17 02:04:00,57.9,56.0,30.23,South,172,0.0,0.0,93,0.00,,,0.00,0,weatherlink.com 1.10,2013-08-17 06:04:00,
2013-08-17 02:19:00,57.6,56.0,30.24,South,172,0.0,0.0,93,0.00,,,0.00,0,weatherlink.com 1.10,2013-08-17 06:19:00,
2013-08-17 02:34:00,57.4,55.0,30.24,South,172,0.0,1.0,93,0.00,,,0.00,0,weatherlink.com 1.10,2013-08-17 06:34:00,
2013-08-17 02:49:00,57.3,55.0,30.24,South,172,0.0,0.0,93,0.00,,,0.00,0,weatherlink.com 1.10,2013-08-17 06:49:00,
2013-08-17 03:04:00,57.0,55.0,30.25,South,172,0.0,0.0,93,0.00,,,0.00,0,weatherlink.com 1.10,2013-08-17 07:04:00,
2013-08-17 03:19:00,56.6,55.0,30.25,South,172,0.0,0.0,93,0.00,,,0.00,0,weatherlink.com 1.10,2013-08-17 07:19:00,
2013-08-17 03:34:00,56.3,54.0,30.25,South,172,0.0,0.0,93,0.00,,,0.00,0,weatherlink.com 1.10,2013-08-17 07:34:00,
2013-08-17 03:50:00,56.3,54.0,30.25,South,172,0.0,1.0,93,0.00,,,0.00,0,weatherlink.com 1.10,2013-08-17 07:50:00,
2013-08-17 04:05:00,56.3,54.0,30.25,South,172,0.0,0.0,93,0.00,,,0.00,0,weatherlink.com 1.10,2013-08-17 08:05:00,
2013-08-17 04:20:00,56.3,54.0,30.26,South,172,0.0,0.0,93,0.00,,,0.00,0,weatherlink.com 1.10,2013-08-17 08:20:00,
2013-08-17 04:35:00,56.1,54.0,30.26,South,172,0.0,0.0,93,0.00,,,0.00,0,weatherlink.com 1.10,2013-08-17 08:35:00,
2013-08-17 04:50:00,55.9,54.0,30.27,South,172,0.0,0.0,92,0.00,,,0.00,0,weatherlink.com 1.10,2013-08-17 08:50:00,
2013-08-17 05:05:00,55.7,54.0,30.27,South,172,0.0,0.0,92,0.00,,,0.00,0,weatherlink.com 1.10,2013-08-17 09:05:00,
2013-08-17 05:20:00,55.6,53.0,30.27,South,172,0.0,0.0,92,0.00,,,0.00,0,weatherlink.com 1.10,2013-08-17 09:20:00,
2013-08-17 05:35:00,55.4,53.0,30.27,South,172,0.0,0.0,92,0.00,,,0.00,0,weatherlink.com 1.10,2013-08-17 09:35:00,
2013-08-17 05:50:00,55.2,53.0,30.27,South,172,0.0,0.0,92,0.00,,,0.00,0,weatherlink.com 1.10,2013-08-17 09:50:00,
2013-08-17 06:05:00,55.0,53.0,30.28,South,172,0.0,0.0,92,0.00,,,0.00,0,weatherlink.com 1.10,2013-08-17 10:05:00,
2013-08-17 06:20:00,54.9,53.0,30.28,South,172,0.0,0.0,92,0.00,,,0.00,5,weatherlink.com 1.10,2013-08-17 10:20:00,
2013-08-17 06:35:00,54.7,53.0,30.28,South,172,0.0,0.0,92,0.00,,,0.00,11,weatherlink.com 1.10,2013-08-17 10:35:00,
2013-08-17 06:50:00,54.6,52.0,30.29,South,172,0.0,0.0,92,0.00,,,0.00,18,weatherlink.com 1.10,2013-08-17 10:50:00,
2013-08-17 07:05:00,54.5,52.0,30.29,South,172,0.0,0.0,92,0.00,,,0.00,18,weatherlink.com 1.10,2013-08-17 11:05:00,
2013-08-17 07:20:00,54.7,53.0,30.29,South,172,0.0,1.0,93,0.00,,,0.00,23,weatherlink.com 1.10,2013-08-17 11:20:00,
2013-08-17 07:35:00,54.9,53.0,30.30,South,172,0.0,0.0,93,0.00,,,0.00,25,weatherlink.com 1.10,2013-08-17 11:35:00,
2013-08-17 07:50:00,55.3,53.0,30.30,South,172,0.0,1.0,93,0.00,,,0.00,26,weatherlink.com 1.10,2013-08-17 11:50:00,
2013-08-17 08:05:00,55.8,54.0,30.30,South,172,0.0,1.0,94,0.00,,,0.00,30,weatherlink.com 1.10,2013-08-17 12:05:00,
2013-08-17 08:20:00,56.5,55.0,30.30,South,172,0.0,1.0,94,0.00,,,0.00,33,weatherlink.com 1.10,2013-08-17 12:20:00,
2013-08-17 08:35:00,57.2,56.0,30.31,South,172,0.0,1.0,94,0.00,,,0.00,37,weatherlink.com 1.10,2013-08-17 12:35:00,
2013-08-17 08:50:00,58.1,57.0,30.30,South,172,0.0,0.0,95,0.00,,,0.00,42,weatherlink.com 1.10,2013-08-17 12:50:00,
2013-08-17 09:05:00,59.2,58.0,30.30,South,172,0.0,1.0,95,0.00,,,0.00,44,weatherlink.com 1.10,2013-08-17 13:05:00,
2013-08-17 09:20:00,60.2,59.0,30.30,South,172,0.0,1.0,95,0.00,,,0.00,53,weatherlink.com 1.10,2013-08-17 13:20:00,
2013-08-17 09:35:00,61.4,60.0,30.30,South,172,0.0,2.0,94,0.00,,,0.00,63,weatherlink.com 1.10,2013-08-17 13:35:00,
2013-08-17 09:50:00,63.6,61.0,30.31,South,172,0.0,1.0,92,0.00,,,0.00,74,weatherlink.com 1.10,2013-08-17 13:50:00,
2013-08-17 10:05:00,65.6,61.0,30.31,South,172,0.0,1.0,85,0.00,,,0.00,84,weatherlink.com 1.10,2013-08-17 14:05:00,
2013-08-17 10:20:00,67.1,61.0,30.31,South,172,0.0,1.0,82,0.00,,,0.00,97,weatherlink.com 1.10,2013-08-17 14:20:00,
2013-08-17 10:35:00,68.7,62.0,30.31,South,172,0.0,2.0,79,0.00,,,0.00,120,weatherlink.com 1.10,2013-08-17 14:35:00,
2013-08-17 10:50:00,69.4,62.0,30.31,South,172,0.0,2.0,77,0.00,,,0.00,116,weatherlink.com 1.10,2013-08-17 14:50:00,
2013-08-17 11:05:00,70.2,62.0,30.30,South,172,0.0,1.0,75,0.00,,,0.00,137,weatherlink.com 1.10,2013-08-17 15:05:00,
2013-08-17 11:21:00,70.9,63.0,30.30,South,172,0.0,1.0,75,0.00,,,0.00,650,weatherlink.com 1.10,2013-08-17 15:21:00,
2013-08-17 11:36:00,71.8,63.0,30.30,South,178,0.0,1.0,74,0.00,,,0.00,603,weatherlink.com 1.10,2013-08-17 15:36:00,
2013-08-17 11:51:00,71.2,63.0,30.29,South,178,0.0,2.0,75,0.00,,,0.00,566,weatherlink.com 1.10,2013-08-17 15:51:00,
2013-08-17 12:06:00,72.6,63.0,30.29,South,178,0.0,2.0,71,0.00,,,0.00,640,weatherlink.com 1.10,2013-08-17 16:06:00,
2013-08-17 12:21:00,73.2,59.0,30.28,South,177,0.0,2.0,62,0.00,,,0.00,661,weatherlink.com 1.10,2013-08-17 16:21:00,
2013-08-17 12:36:00,74.1,62.0,30.28,South,177,1.0,2.0,66,0.00,,,0.00,742,weatherlink.com 1.10,2013-08-17 16:36:00,
2013-08-17 12:51:00,74.6,61.0,30.28,South,177,0.0,1.0,63,0.00,,,0.00,868,weatherlink.com 1.10,2013-08-17 16:51:00,
2013-08-17 13:06:00,75.6,61.0,30.28,South,178,0.0,2.0,61,0.00,,,0.00,817,weatherlink.com 1.10,2013-08-17 17:06:00,
2013-08-17 13:21:00,76.2,61.0,30.27,South,178,0.0,2.0,60,0.00,,,0.00,742,weatherlink.com 1.10,2013-08-17 17:21:00,
2013-08-17 13:36:00,76.8,63.0,30.27,SW,217,0.0,2.0,63,0.00,,,0.00,893,weatherlink.com 1.10,2013-08-17 17:36:00,
2013-08-17 13:51:00,77.3,60.0,30.27,SW,217,0.0,1.0,55,0.00,,,0.00,886,weatherlink.com 1.10,2013-08-17 17:51:00,
2013-08-17 14:06:00,77.7,61.0,30.27,SW,225,0.0,2.0,57,0.00,,,0.00,898,weatherlink.com 1.10,2013-08-17 18:06:00,
2013-08-17 14:21:00,78.3,61.0,30.27,South,186,0.0,2.0,56,0.00,,,0.00,905,weatherlink.com 1.10,2013-08-17 18:21:00,
2013-08-17 14:36:00,78.8,57.0,30.26,SSW,194,2.0,2.0,48,0.00,,,0.00,786,weatherlink.com 1.10,2013-08-17 18:36:00,
2013-08-17 14:51:00,78.0,58.0,30.26,SSW,213,0.0,2.0,50,0.00,,,0.00,710,weatherlink.com 1.10,2013-08-17 18:51:00,
2013-08-17 15:06:00,78.4,59.0,30.25,SSW,213,0.0,1.0,51,0.00,,,0.00,824,weatherlink.com 1.10,2013-08-17 19:06:00,
2013-08-17 15:21:00,78.5,59.0,30.25,SSW,204,0.0,2.0,51,0.00,,,0.00,701,weatherlink.com 1.10,2013-08-17 19:21:00,
2013-08-17 15:36:00,77.8,58.0,30.25,South,191,0.0,2.0,50,0.00,,,0.00,603,weatherlink.com 1.10,2013-08-17 19:36:00,
2013-08-17 15:51:00,75.4,58.0,30.25,South,191,1.0,2.0,56,0.00,,,0.00,313,weatherlink.com 1.10,2013-08-17 19:51:00,
2013-08-17 16:06:00,76.4,61.0,30.24,South,191,0.0,2.0,59,0.00,,,0.00,798,weatherlink.com 1.10,2013-08-17 20:06:00,
2013-08-17 16:21:00,78.5,62.0,30.24,South,191,0.0,1.0,58,0.00,,,0.00,670,weatherlink.com 1.10,2013-08-17 20:21:00,
2013-08-17 16:36:00,78.4,57.0,30.24,South,177,0.0,4.0,48,0.00,,,0.00,621,weatherlink.com 1.10,2013-08-17 20:36:00,
2013-08-17 16:51:00,77.6,57.0,30.24,South,177,0.0,2.0,49,0.00,,,0.00,559,weatherlink.com 1.10,2013-08-17 20:51:00,
2013-08-17 17:06:00,77.8,58.0,30.24,South,177,0.0,2.0,50,0.00,,,0.00,522,weatherlink.com 1.10,2013-08-17 21:06:00,
2013-08-17 17:21:00,77.5,57.0,30.24,South,177,0.0,1.0,50,0.00,,,0.00,241,weatherlink.com 1.10,2013-08-17 21:21:00,
2013-08-17 17:36:00,76.6,57.0,30.24,South,177,1.0,2.0,51,0.00,,,0.00,385,weatherlink.com 1.10,2013-08-17 21:36:00,
2013-08-17 17:51:00,76.7,58.0,30.24,South,177,0.0,1.0,53,0.00,,,0.00,346,weatherlink.com 1.10,2013-08-17 21:51:00,
2013-08-17 18:06:00,75.2,58.0,30.24,South,177,1.0,2.0,55,0.00,,,0.00,241,weatherlink.com 1.10,2013-08-17 22:06:00,
2013-08-17 18:21:00,74.4,59.0,30.24,South,177,0.0,2.0,59,0.00,,,0.00,123,weatherlink.com 1.10,2013-08-17 22:21:00,
2013-08-17 18:36:00,73.9,59.0,30.24,South,177,0.0,1.0,59,0.00,,,0.00,95,weatherlink.com 1.10,2013-08-17 22:36:00,
2013-08-17 18:51:00,73.6,59.0,30.24,South,177,0.0,1.0,61,0.00,,,0.00,76,weatherlink.com 1.10,2013-08-17 22:51:00,
2013-08-17 19:06:00,72.9,59.0,30.24,South,177,0.0,0.0,63,0.00,,,0.00,47,weatherlink.com 1.10,2013-08-17 23:06:00,
2013-08-17 19:21:00,71.7,59.0,30.24,South,177,0.0,0.0,64,0.00,,,0.00,33,weatherlink.com 1.10,2013-08-17 23:21:00,
2013-08-17 19:36:00,70.7,60.0,30.24,South,177,0.0,0.0,68,0.00,,,0.00,12,weatherlink.com 1.10,2013-08-17 23:36:00,
2013-08-17 19:51:00,69.5,59.0,30.24,South,177,0.0,0.0,70,0.00,,,0.00,0,weatherlink.com 1.10,2013-08-17 23:51:00,
2013-08-17 20:06:00,68.4,61.0,30.24,South,177,0.0,0.0,76,0.00,,,0.00,0,weatherlink.com 1.10,2013-08-18 00:06:00,
2013-08-17 20:21:00,67.4,61.0,30.24,South,177,0.0,0.0,81,0.00,,,0.00,0,weatherlink.com 1.10,2013-08-18 00:21:00,
2013-08-17 20:36:00,66.6,61.0,30.25,South,177,0.0,0.0,82,0.00,,,0.00,0,weatherlink.com 1.10,2013-08-18 00:36:00,
2013-08-17 20:51:00,66.1,61.0,30.25,South,177,0.0,0.0,84,0.00,,,0.00,0,weatherlink.com 1.10,2013-08-18 00:51:00,
2013-08-17 21:06:00,65.5,61.0,30.25,South,177,0.0,0.0,85,0.00,,,0.00,0,weatherlink.com 1.10,2013-08-18 01:06:00,
2013-08-17 21:21:00,64.9,61.0,30.26,South,177,0.0,0.0,86,0.00,,,0.00,0,weatherlink.com 1.10,2013-08-18 01:21:00,
2013-08-17 21:36:00,64.6,61.0,30.26,South,177,0.0,0.0,87,0.00,,,0.00,0,weatherlink.com 1.10,2013-08-18 01:36:00,
2013-08-17 21:51:00,64.1,61.0,30.27,South,177,0.0,0.0,88,0.00,,,0.00,0,weatherlink.com 1.10,2013-08-18 01:51:00,
2013-08-17 22:06:00,63.7,61.0,30.27,South,177,0.0,0.0,89,0.00,,,0.00,0,weatherlink.com 1.10,2013-08-18 02:06:00,
2013-08-17 22:21:00,63.7,60.0,30.27,South,177,0.0,1.0,88,0.00,,,0.00,0,weatherlink.com 1.10,2013-08-18 02:21:00,
2013-08-17 22:36:00,63.0,60.0,30.27,South,177,0.0,0.0,89,0.00,,,0.00,0,weatherlink.com 1.10,2013-08-18 02:36:00,
2013-08-17 22:51:00,62.8,60.0,30.27,South,177,0.0,0.0,90,0.00,,,0.00,0,weatherlink.com 1.10,2013-08-18 02:51:00,
2013-08-17 23:06:00,62.7,60.0,30.27,South,177,0.0,1.0,90,0.00,,,0.00,0,weatherlink.com 1.10,2013-08-18 03:06:00,
2013-08-17 23:21:00,62.1,59.0,30.27,South,177,0.0,0.0,90,0.00,,,0.00,0,weatherlink.com 1.10,2013-08-18 03:21:00,
2013-08-17 23:51:00,61.4,59.0,30.27,South,177,0.0,0.0,91,0.00,,,0.00,0,weatherlink.com 1.10,2013-08-18 03:51:00,